This is the latest recevied weather packets stored in our database for station/object N5SRF. If no packets are shown the sender has not sent any weather packets the latest 10 day(s).
| Time | Temp. | Humidity | Pressure | Rain* | Wind** | Luminosity | Snow |
|---|---|---|---|---|---|---|---|
| 1787847362 | 35° C | 60% | 1019.4 hPa | 0 mm | - | 628 W/m² | - |
| 1787847058 | 35° C | 59% | 1019.1 hPa | 0 mm | - | 621 W/m² | - |
| 1787846754 | 35° C | 59% | 1019.2 hPa | 0 mm | - | 607 W/m² | - |
| 1787846449 | 35° C | 62% | 1019.1 hPa | 0 mm | - | 595 W/m² | - |
| 1787846144 | 34.44° C | 64% | 1019 hPa | 0 mm | - | 577 W/m² | - |
| 1787845839 | 33.89° C | 65% | 1019.1 hPa | 0 mm | - | 568 W/m² | - |
| 1787845535 | 33.89° C | 63% | 1019.2 hPa | 0 mm | - | 564 W/m² | - |
| 1787845230 | 33.33° C | 66% | 1019 hPa | 0 mm | - | 554 W/m² | - |
| 1787844926 | 32.78° C | 68% | 1019.1 hPa | 0 mm | - | 551 W/m² | - |
| 1787844626 | 32.22° C | 71% | 1019 hPa | 0 mm | - | 420 W/m² | - |
| 1787844321 | 32.78° C | 71% | 1019.1 hPa | 0 mm | - | 573 W/m² | - |
| 1787844014 | 32.22° C | 73% | 1018.9 hPa | 0 mm | - | 518 W/m² | - |
| 1787843709 | 32.22° C | 73% | 1019.1 hPa | 0 mm | - | 334 W/m² | - |
| 1787843404 | 32.22° C | 73% | 1018.8 hPa | 0 mm | - | 387 W/m² | - |
| 1787843101 | 32.22° C | 73% | 1018.7 hPa | 0 mm | - | 388 W/m² | - |
| 1787842800 | 31.67° C | 75% | 1018.6 hPa | 0 mm | - | 486 W/m² | - |
| 1787842496 | 31.11° C | 77% | 1018.8 hPa | 0 mm | - | 456 W/m² | - |
| 1787842195 | 31.11° C | 77% | 1018.9 hPa | 0 mm | - | 313 W/m² | - |
| 1787841895 | 31.11° C | 78% | 1019 hPa | 0 mm | - | 419 W/m² | - |
| 1787841591 | 31.11° C | 79% | 1018.8 hPa | 0 mm | - | 385 W/m² | - |
| 1787841290 | 30.56° C | 81% | 1018.9 hPa | 0 mm | - | 352 W/m² | - |
| 1787840985 | 30° C | 83% | 1018.8 hPa | 0 mm | - | 304 W/m² | - |
| 1787840681 | 29.44° C | 85% | 1018.7 hPa | 0 mm | - | 345 W/m² | - |
| 1787840370 | 28.89° C | 90% | 1018.8 hPa | 0 mm | - | 332 W/m² | - |
| 1787840065 | 28.33° C | 89% | 1018.8 hPa | 0 mm | - | 276 W/m² | - |
* Rain latest hour (hover to see other rain measurements)
** Current wind speed in m/s (hover to see current wind gust speed)